Time;durP1;ratioP1;P1;durP2;ratioP2;P2;SDS_P1;SDS_P2;PMS_P1;PMS_P2;Temp;Humidity;BMP_temperature;BMP_pressure;BME280_temperature;BME280_humidity;BME280_pressure;Samples;Min_cycle;Max_cycle;Signal;HPM_P1;HPM_P2
2023/02/26 00:00:14;;;;;;;13.00;9.65;;;;;;;4.10;73.40;94405.84;5115099;27;20034;-66
2023/02/26 00:02:41;;;;;;;12.63;9.00;;;;;;;4.07;72.92;94407.88;5116754;27;20046;-66
2023/02/26 00:05:07;;;;;;;13.18;8.43;;;;;;;4.11;72.31;94397.06;5115516;27;20073;-66
2023/02/26 00:07:33;;;;;;;8.63;7.35;;;;;;;4.20;72.21;94402.41;5115499;27;20031;-66
2023/02/26 00:10:00;;;;;;;11.27;7.95;;;;;;;4.19;72.19;94401.63;5117053;28;20028;-71
2023/02/26 00:12:26;;;;;;;12.00;8.68;;;;;;;4.12;72.29;94400.50;5116418;28;20073;-72
2023/02/26 00:14:51;;;;;;;12.98;7.70;;;;;;;4.22;71.16;94403.13;5116462;28;20012;-72
2023/02/26 00:17:22;;;;;;;13.15;8.15;;;;;;;4.10;71.41;94405.03;5116217;28;20031;-72
2023/02/26 00:19:48;;;;;;;12.85;7.88;;;;;;;4.05;71.85;94402.81;5117125;28;20039;-72
2023/02/26 00:22:14;;;;;;;13.98;9.27;;;;;;;4.16;71.15;94404.50;5118817;28;20796;-71
2023/02/26 00:24:39;;;;;;;10.65;8.07;;;;;;;4.05;71.87;94399.38;5115841;28;20481;-72
2023/02/26 00:27:04;;;;;;;12.73;8.38;;;;;;;4.08;71.48;94397.34;5117121;28;20031;-71
2023/02/26 00:29:30;;;;;;;8.40;7.18;;;;;;;3.89;71.12;94390.31;5115794;28;20062;-64
2023/02/26 00:31:57;;;;;;;15.50;9.80;;;;;;;3.95;71.19;94400.19;5118307;28;20036;-60
2023/02/26 00:34:22;;;;;;;7.97;6.20;;;;;;;3.94;71.69;94395.94;5099996;28;20019;-61
2023/02/26 00:37:02;;;;;;;12.30;8.40;;;;;;;3.80;71.71;94391.94;5113454;28;20024;-61
2023/02/26 00:40:06;;;;;;;10.32;6.90;;;;;;;3.72;72.67;94397.78;5096783;28;20020;-61
2023/02/26 00:42:32;;;;;;;10.80;6.47;;;;;;;3.71;72.54;94388.34;5118995;28;20516;-61
2023/02/26 00:44:57;;;;;;;8.60;7.13;;;;;;;3.67;73.16;94391.31;5115960;28;20049;-61
2023/02/26 00:47:37;;;;;;;11.95;7.28;;;;;;;3.63;72.70;94393.34;5116719;28;20053;-65
2023/02/26 00:50:16;;;;;;;11.93;8.70;;;;;;;3.68;73.63;94392.97;5117300;28;20511;-71
2023/02/26 00:55:18;;;;;;;19.40;10.25;;;;;;;3.58;73.23;94395.53;5451235;22;20737;-64
2023/02/26 00:57:44;;;;;;;17.80;10.05;;;;;;;3.68;73.40;94393.81;5039928;28;20036;-64
2023/02/26 01:00:10;;;;;;;15.38;10.88;;;;;;;3.63;72.69;94403.78;5052871;28;20037;-62
2023/02/26 01:02:37;;;;;;;10.48;6.88;;;;;;;3.51;73.22;94399.63;5055735;28;20100;-62
2023/02/26 01:05:03;;;;;;;9.88;7.40;;;;;;;3.72;71.30;94389.97;5051004;28;20138;-63
2023/02/26 01:07:37;;;;;;;13.20;9.48;;;;;;;3.69;71.53;94390.25;5054490;28;20029;-63
2023/02/26 01:10:03;;;;;;;10.75;9.48;;;;;;;3.77;71.22;94388.75;5058600;28;20040;-64
2023/02/26 01:12:28;;;;;;;9.85;6.40;;;;;;;3.73;70.81;94391.63;5051210;28;20021;-62
2023/02/26 01:14:54;;;;;;;12.13;8.23;;;;;;;3.80;70.94;94385.88;5056908;28;20390;-56
2023/02/26 01:17:34;;;;;;;9.57;8.15;;;;;;;3.52;71.79;94385.66;5058723;28;20025;-52
2023/02/26 01:20:04;;;;;;;14.50;10.52;;;;;;;3.54;72.06;94381.97;5056068;28;20025;-56
2023/02/26 01:22:41;;;;;;;26.40;21.35;;;;;;;3.66;71.62;94374.91;5049955;28;20028;-53
2023/02/26 01:25:13;;;;;;;11.13;9.15;;;;;;;3.51;72.05;94374.41;5056634;28;20036;-55
2023/02/26 01:27:39;;;;;;;14.27;10.57;;;;;;;3.58;71.26;94380.75;5055302;28;20071;-54
2023/02/26 01:30:06;;;;;;;13.40;10.68;;;;;;;3.60;70.62;94377.19;5056214;28;20067;-64
2023/02/26 01:32:43;;;;;;;15.07;12.45;;;;;;;3.50;70.50;94382.38;5055609;28;20031;-61
2023/02/26 01:35:19;;;;;;;10.75;6.80;;;;;;;3.44;70.96;94368.94;5055503;28;20027;-61
2023/02/26 01:38:00;;;;;;;7.32;6.10;;;;;;;3.48;71.33;94361.66;5055768;28;20517;-61
2023/02/26 01:40:40;;;;;;;8.32;6.88;;;;;;;3.35;71.32;94363.69;5056828;28;20055;-61
2023/02/26 01:43:11;;;;;;;7.68;6.30;;;;;;;3.32;72.03;94361.34;5053774;28;20525;-61
2023/02/26 01:46:22;;;;;;;9.57;6.10;;;;;;;3.36;71.39;94358.34;5052865;28;20103;-61
2023/02/26 01:48:49;;;;;;;7.72;5.30;;;;;;;3.17;71.54;94355.63;5037087;28;20044;-62
2023/02/26 01:51:15;;;;;;;8.77;5.85;;;;;;;3.08;71.98;94355.47;5055128;28;20037;-63
2023/02/26 01:53:40;;;;;;;9.73;5.50;;;;;;;3.17;72.02;94348.69;5059624;28;20453;-64
2023/02/26 01:56:16;;;;;;;6.80;5.05;;;;;;;3.20;72.00;94355.38;5055798;28;20450;-64
2023/02/26 01:58:43;;;;;;;8.02;6.22;;;;;;;3.31;70.51;94352.72;5061131;28;20016;-64
2023/02/26 02:01:08;;;;;;;7.70;6.03;;;;;;;3.23;71.88;94361.16;5056676;28;20048;-64
2023/02/26 02:03:38;;;;;;;12.40;5.60;;;;;;;3.30;70.94;94351.88;5058360;28;20020;-63
2023/02/26 02:06:08;;;;;;;8.73;5.20;;;;;;;3.10;71.80;94343.16;5058088;28;20155;-63
2023/02/26 02:08:34;;;;;;;7.68;4.90;;;;;;;3.11;71.18;94339.59;5047769;28;20043;-67
2023/02/26 02:11:02;;;;;;;7.75;5.43;;;;;;;2.98;71.96;94341.56;5041100;28;20024;-67
2023/02/26 02:13:54;;;;;;;5.43;4.45;;;;;;;2.90;71.48;94341.41;5056161;28;20017;-63
2023/02/26 02:16:38;;;;;;;9.20;5.88;;;;;;;2.84;71.77;94340.97;5044287;28;20062;-63
2023/02/26 02:19:21;;;;;;;6.68;5.03;;;;;;;2.92;71.99;94342.94;5046447;28;20029;-64
2023/02/26 02:21:58;;;;;;;7.55;5.45;;;;;;;2.89;71.67;94339.75;5042604;28;20032;-63
2023/02/26 02:24:51;;;;;;;7.78;4.95;;;;;;;2.83;71.86;94335.88;5042609;28;20037;-64
2023/02/26 02:27:26;;;;;;;4.88;4.47;;;;;;;2.92;71.50;94339.50;5040030;28;20098;-60
2023/02/26 02:29:57;;;;;;;6.75;4.30;;;;;;;2.77;70.88;94339.84;5067014;28;20040;-63
2023/02/26 02:32:35;;;;;;;5.45;4.40;;;;;;;2.94;69.28;94335.84;5069609;28;20440;-61
2023/02/26 02:36:05;;;;;;;7.03;5.53;;;;;;;3.17;68.37;94340.03;5050065;28;20031;-61
2023/02/26 02:38:37;;;;;;;6.20;5.22;;;;;;;3.10;67.77;94340.56;5001904;28;20049;-61
2023/02/26 02:41:11;;;;;;;9.32;4.70;;;;;;;3.19;66.12;94343.31;5066747;28;20089;-61
2023/02/26 02:43:39;;;;;;;7.95;5.05;;;;;;;3.01;65.98;94341.34;5060765;28;20025;-60
2023/02/26 02:46:09;;;;;;;4.38;3.95;;;;;;;2.89;65.32;94350.16;5068532;28;20060;-61
2023/02/26 02:48:40;;;;;;;9.85;5.97;;;;;;;2.72;66.64;94341.97;5062830;28;20035;-61
2023/02/26 02:51:18;;;;;;;7.68;4.18;;;;;;;2.87;65.73;94345.06;5054302;28;20138;-64
2023/02/26 02:53:52;;;;;;;4.63;3.97;;;;;;;2.95;65.44;94347.03;5068484;28;20662;-65
2023/02/26 02:56:28;;;;;;;5.55;4.43;;;;;;;2.95;65.40;94350.47;5046000;28;20124;-64
2023/02/26 02:59:12;;;;;;;8.68;4.60;;;;;;;2.89;65.16;94343.19;5065056;28;20076;-64
2023/02/26 03:01:40;;;;;;;6.10;4.93;;;;;;;2.97;64.60;94343.38;5070025;28;20532;-64
2023/02/26 03:04:10;;;;;;;9.07;4.53;;;;;;;2.88;65.41;94336.34;5063859;28;20024;-64
2023/02/26 03:06:36;;;;;;;10.80;4.15;;;;;;;2.92;65.34;94340.34;5057962;28;20029;-73
2023/02/26 03:09:04;;;;;;;5.78;4.60;;;;;;;2.95;63.92;94339.25;5060857;28;20528;-62
2023/02/26 03:11:31;;;;;;;8.00;5.13;;;;;;;2.70;64.67;94341.28;5039795;28;20025;-56
2023/02/26 03:13:57;;;;;;;6.03;4.63;;;;;;;2.66;65.68;94340.75;5058265;28;20048;-57
2023/02/26 03:16:38;;;;;;;5.70;4.00;;;;;;;2.71;65.30;94335.13;5061382;28;20029;-55
2023/02/26 03:19:12;;;;;;;6.32;4.07;;;;;;;2.74;64.98;94334.88;5055379;28;20494;-55
2023/02/26 03:21:53;;;;;;;4.75;4.03;;;;;;;2.51;65.08;94339.38;5040807;28;20397;-56
2023/02/26 03:24:48;;;;;;;6.68;3.72;;;;;;;2.59;65.01;94347.38;5036956;28;20032;-55
2023/02/26 03:27:34;;;;;;;4.53;3.85;;;;;;;2.63;65.42;94346.16;5045235;28;20025;-65
2023/02/26 03:30:06;;;;;;;;;;;;;;;2.52;63.84;94336.66;5032264;28;20517;-71
2023/02/26 03:33:09;;;;;;;7.00;4.20;;;;;;;2.49;64.94;94349.09;5045404;28;19916;-72
2023/02/26 03:35:46;;;;;;;6.30;3.85;;;;;;;2.50;65.63;94353.34;5046013;28;20101;-72
2023/02/26 03:38:22;;;;;;;7.18;4.25;;;;;;;2.66;64.02;94352.91;5050454;28;20124;-73
2023/02/26 03:41:02;;;;;;;6.53;4.38;;;;;;;2.56;65.01;94361.47;5064311;28;20024;-72
2023/02/26 03:43:49;;;;;;;7.53;4.47;;;;;;;2.60;64.38;94374.19;5060095;28;20021;-73
2023/02/26 03:46:24;;;;;;;7.63;4.50;;;;;;;2.51;64.71;94355.78;5056621;28;20023;-56
2023/02/26 03:48:51;;;;;;;7.20;4.28;;;;;;;2.44;64.92;94357.25;5042201;28;20034;-65
2023/02/26 03:51:17;;;;;;;6.18;3.80;;;;;;;2.39;64.91;94359.41;5040576;28;20028;-65
2023/02/26 03:53:48;;;;;;;5.65;4.60;;;;;;;2.45;65.08;94361.50;5063596;28;20444;-65
2023/02/26 03:56:32;;;;;;;5.15;4.50;;;;;;;2.46;64.59;94357.94;5038754;28;20430;-65
2023/02/26 03:58:57;;;;;;;7.05;4.30;;;;;;;2.41;65.15;94362.69;5033179;28;20108;-65
2023/02/26 04:01:29;;;;;;;5.63;4.07;;;;;;;2.47;64.68;94366.56;5034557;28;20120;-65
2023/02/26 04:04:00;;;;;;;8.23;4.38;;;;;;;2.34;64.23;94359.75;5037933;28;20040;-61
2023/02/26 04:06:27;;;;;;;8.55;4.57;;;;;;;2.38;64.83;94352.56;5041391;28;20025;-63
2023/02/26 04:08:53;;;;;;;5.35;4.43;;;;;;;2.35;64.98;94350.22;5042871;28;20034;-61
2023/02/26 04:11:21;;;;;;;7.20;4.05;;;;;;;2.33;64.73;94357.31;5051693;28;20024;-61
2023/02/26 04:13:47;;;;;;;6.78;4.40;;;;;;;2.25;64.89;94352.72;5055332;28;20051;-61
2023/02/26 04:16:13;;;;;;;6.10;4.60;;;;;;;2.34;65.11;94351.97;5057299;28;20498;-61
2023/02/26 04:18:39;;;;;;;4.82;4.32;;;;;;;2.22;65.71;94351.19;5065858;28;20020;-61
2023/02/26 04:21:05;;;;;;;7.20;4.53;;;;;;;2.29;65.35;94351.53;5063805;28;20063;-60
2023/02/26 04:23:30;;;;;;;5.05;4.22;;;;;;;2.28;65.84;94344.69;5052991;28;20446;-73
2023/02/26 04:25:56;;;;;;;5.50;4.90;;;;;;;2.12;67.38;94345.09;5056681;28;20482;-63
2023/02/26 04:28:21;;;;;;;8.40;4.75;;;;;;;2.08;66.79;94343.69;5065708;28;20375;-54
2023/02/26 04:30:47;;;;;;;6.63;4.38;;;;;;;1.96;66.74;94355.88;5068468;28;20024;-55
2023/02/26 04:33:13;;;;;;;5.55;4.32;;;;;;;2.00;66.21;94344.31;5053214;28;20032;-55
2023/02/26 04:35:38;;;;;;;9.35;4.22;;;;;;;1.92;67.14;94338.91;5055372;28;20369;-56
2023/02/26 04:38:04;;;;;;;6.05;4.50;;;;;;;1.80;67.96;94338.09;5052801;28;20459;-57
2023/02/26 04:40:30;;;;;;;5.40;4.72;;;;;;;1.97;67.64;94329.81;5067741;28;20068;-55
2023/02/26 04:42:55;;;;;;;7.03;4.82;;;;;;;1.94;67.47;94337.84;5050817;28;20028;-67
2023/02/26 04:45:21;;;;;;;5.07;4.47;;;;;;;1.96;67.59;94320.38;5057860;28;20468;-61
2023/02/26 04:47:46;;;;;;;6.22;4.55;;;;;;;1.94;67.78;94322.25;5037479;28;20079;-60
2023/02/26 04:50:12;;;;;;;8.02;4.68;;;;;;;1.93;68.37;94324.97;5031804;28;20502;-60
2023/02/26 04:52:37;;;;;;;9.38;8.23;;;;;;;1.85;68.10;94315.19;5052169;28;20107;-63
2023/02/26 04:55:03;;;;;;;7.35;4.95;;;;;;;1.93;68.42;94325.81;5044742;28;20060;-61
2023/02/26 04:57:28;;;;;;;6.88;4.93;;;;;;;1.90;67.94;94314.84;5048056;28;20080;-60
2023/02/26 04:59:53;;;;;;;14.55;5.10;;;;;;;1.79;68.43;94324.31;5064227;28;20031;-60
2023/02/26 05:02:19;;;;;;;8.95;5.00;;;;;;;1.66;69.54;94327.06;5051157;28;20043;-62
2023/02/26 05:04:44;;;;;;;8.88;5.38;;;;;;;1.75;68.78;94317.69;5061654;28;20048;-62
2023/02/26 05:07:09;;;;;;;7.13;5.70;;;;;;;1.98;68.50;94313.28;5049315;28;20070;-63
2023/02/26 05:09:35;;;;;;;8.82;5.43;;;;;;;1.92;68.29;94311.19;5069405;28;20036;-63
2023/02/26 05:12:00;;;;;;;6.93;5.05;;;;;;;1.78;68.28;94321.84;5061630;28;20475;-63
2023/02/26 05:14:25;;;;;;;8.35;5.95;;;;;;;1.95;67.85;94312.69;5059245;28;20482;-63
2023/02/26 05:16:51;;;;;;;5.80;4.97;;;;;;;1.97;69.29;94313.38;5054613;28;20521;-62
2023/02/26 05:19:17;;;;;;;8.38;6.38;;;;;;;1.84;68.65;94308.34;5062060;28;20504;-62
2023/02/26 05:21:42;;;;;;;6.72;6.10;;;;;;;1.83;67.98;94319.69;5068256;28;20025;-62
2023/02/26 05:24:07;;;;;;;8.27;6.22;;;;;;;1.59;68.88;94310.31;5056448;28;20020;-66
2023/02/26 05:26:33;;;;;;;7.22;5.75;;;;;;;1.77;69.76;94308.03;5065381;28;20036;-62
2023/02/26 05:28:58;;;;;;;7.47;6.40;;;;;;;1.70;69.60;94305.09;5053456;28;20043;-63
2023/02/26 05:31:25;;;;;;;10.35;6.55;;;;;;;1.69;69.77;94308.66;5056221;28;20035;-62
2023/02/26 05:33:51;;;;;;;8.32;6.28;;;;;;;1.73;69.47;94305.81;5057686;28;20034;-62
2023/02/26 05:36:16;;;;;;;9.25;6.15;;;;;;;1.65;70.12;94294.25;5068623;28;20111;-62
2023/02/26 05:38:41;;;;;;;7.05;6.05;;;;;;;1.59;70.20;94304.31;5050524;28;20029;-63
2023/02/26 05:41:07;;;;;;;8.95;7.35;;;;;;;1.61;69.92;94307.59;5050871;28;20239;-62
2023/02/26 05:43:32;;;;;;;8.07;6.53;;;;;;;1.68;70.08;94301.81;5068719;28;20019;-63
2023/02/26 05:45:58;;;;;;;8.52;6.32;;;;;;;1.59;69.77;94299.13;5071609;28;20607;-56
2023/02/26 05:48:23;;;;;;;11.10;6.70;;;;;;;1.45;70.82;94295.84;5045617;28;20146;-56
2023/02/26 05:50:49;;;;;;;8.05;6.32;;;;;;;1.45;71.23;94301.03;5038804;28;20164;-56
2023/02/26 05:53:15;;;;;;;10.77;5.75;;;;;;;1.51;71.95;94295.34;5063943;28;20230;-54
2023/02/26 05:55:40;;;;;;;10.10;6.13;;;;;;;1.58;71.30;94290.50;5045445;28;20418;-54
2023/02/26 05:58:06;;;;;;;9.18;6.00;;;;;;;1.49;70.10;94294.63;5057054;28;20028;-54
2023/02/26 06:00:31;;;;;;;10.23;6.95;;;;;;;1.55;71.11;94295.94;5044547;28;20466;-63
2023/02/26 06:02:57;;;;;;;10.63;6.03;;;;;;;1.49;71.72;94293.84;5047283;28;20025;-60
2023/02/26 06:05:22;;;;;;;7.47;5.93;;;;;;;1.49;70.61;94291.25;5063940;28;20096;-59
2023/02/26 06:07:47;;;;;;;8.77;6.45;;;;;;;1.46;70.77;94297.47;5048753;28;20013;-59
2023/02/26 06:10:13;;;;;;;8.07;6.68;;;;;;;1.61;70.72;94295.44;5032501;28;20032;-60
2023/02/26 06:12:38;;;;;;;8.15;6.22;;;;;;;1.30;71.83;94303.06;5050968;28;20379;-59
2023/02/26 06:15:04;;;;;;;7.00;6.00;;;;;;;1.40;71.43;94298.78;5059950;28;20025;-60
2023/02/26 06:17:30;;;;;;;10.13;5.68;;;;;;;1.36;71.15;94299.97;5052230;28;20083;-60
2023/02/26 06:19:55;;;;;;;12.20;6.25;;;;;;;1.50;70.40;94311.03;5055324;28;20116;-61
2023/02/26 06:22:21;;;;;;;6.45;5.70;;;;;;;1.62;70.28;94307.47;5036824;28;20024;-62
2023/02/26 06:24:47;;;;;;;8.68;6.28;;;;;;;1.45;70.72;94308.81;5057935;28;20554;-71
2023/02/26 06:27:12;;;;;;;8.48;5.82;;;;;;;1.28;71.06;94307.53;5043368;28;20039;-71
2023/02/26 06:29:38;;;;;;;7.55;6.63;;;;;;;1.39;70.51;94302.31;5050907;28;20075;-71
2023/02/26 06:32:04;;;;;;;8.38;5.57;;;;;;;1.40;70.47;94306.56;5046869;28;20065;-72
2023/02/26 06:34:30;;;;;;;11.73;6.03;;;;;;;1.33;70.86;94307.19;5046557;28;20059;-72
2023/02/26 06:36:55;;;;;;;6.18;5.32;;;;;;;1.49;69.82;94306.81;5060027;28;20028;-71
2023/02/26 06:39:20;;;;;;;6.75;5.53;;;;;;;1.38;70.04;94313.63;5060565;28;20021;-62
2023/02/26 06:41:46;;;;;;;5.88;5.28;;;;;;;1.28;70.62;94315.31;5059325;28;20099;-60
2023/02/26 06:44:11;;;;;;;6.85;5.78;;;;;;;1.36;70.62;94309.53;5047568;28;20021;-62
2023/02/26 06:46:37;;;;;;;5.90;5.32;;;;;;;1.32;70.56;94306.34;5054747;28;20107;-62
2023/02/26 06:49:03;;;;;;;7.28;5.40;;;;;;;1.29;69.63;94309.19;5050727;28;20037;-63
2023/02/26 06:51:29;;;;;;;9.70;5.93;;;;;;;1.27;70.24;94300.69;5044495;28;20033;-63
2023/02/26 06:53:55;;;;;;;6.32;5.72;;;;;;;1.22;69.89;94295.06;5062239;28;20112;-63
2023/02/26 06:56:21;;;;;;;6.40;5.78;;;;;;;1.22;70.50;94300.25;5061201;28;20164;-62
2023/02/26 06:58:47;;;;;;;5.97;5.03;;;;;;;1.29;69.71;94301.41;5065857;28;20062;-66
2023/02/26 07:01:12;;;;;;;5.70;5.20;;;;;;;1.12;70.70;94298.34;5056253;28;20028;-59
2023/02/26 07:03:37;;;;;;;6.90;5.63;;;;;;;1.36;69.47;94296.56;5060869;28;20032;-62
2023/02/26 07:06:06;;;;;;;7.88;5.40;;;;;;;1.22;68.21;94313.19;5062230;28;20501;-60
2023/02/26 07:08:31;;;;;;;6.72;5.20;;;;;;;1.20;68.33;94308.13;5036203;28;20117;-59
2023/02/26 07:10:57;;;;;;;6.78;4.90;;;;;;;1.29;68.47;94301.41;5039717;28;20532;-59
2023/02/26 07:13:22;;;;;;;5.13;4.63;;;;;;;1.21;68.18;94314.97;5050313;28;20031;-59
2023/02/26 07:15:47;;;;;;;4.93;4.43;;;;;;;1.22;67.86;94320.97;5051426;28;20016;-60
2023/02/26 07:18:13;;;;;;;9.25;4.80;;;;;;;1.15;67.38;94302.47;5037409;28;20060;-60
2023/02/26 07:20:38;;;;;;;5.13;4.63;;;;;;;1.21;67.73;94299.41;5057237;28;20437;-62
2023/02/26 07:23:04;;;;;;;5.07;4.57;;;;;;;1.11;68.55;94303.66;5048921;28;20029;-62
2023/02/26 07:25:29;;;;;;;5.20;4.70;;;;;;;1.13;68.34;94305.19;5050412;28;20020;-62
2023/02/26 07:27:55;;;;;;;5.25;4.75;;;;;;;1.04;68.86;94308.50;5060063;28;20103;-62
2023/02/26 07:30:20;;;;;;;5.53;5.10;;;;;;;1.17;68.57;94310.13;5033090;28;20062;-62
2023/02/26 07:32:46;;;;;;;5.63;4.60;;;;;;;1.17;67.89;94312.72;5053623;28;20072;-62
2023/02/26 07:35:11;;;;;;;5.10;4.63;;;;;;;1.17;68.08;94303.19;5061154;28;20040;-65
2023/02/26 07:37:36;;;;;;;6.78;5.32;;;;;;;1.22;67.77;94305.44;5037211;28;20066;-59
2023/02/26 07:40:02;;;;;;;5.63;4.97;;;;;;;1.19;66.76;94309.06;5056447;28;20525;-62
2023/02/26 07:42:28;;;;;;;6.03;5.45;;;;;;;1.02;68.10;94300.00;5049069;28;20021;-61
2023/02/26 07:44:53;;;;;;;6.40;5.47;;;;;;;1.17;67.46;94298.00;5063167;28;20016;-62
2023/02/26 07:47:18;;;;;;;6.43;5.57;;;;;;;0.97;67.76;94307.28;5047196;28;20021;-63
2023/02/26 07:49:44;;;;;;;8.60;6.25;;;;;;;1.03;67.36;94306.84;5051871;28;20051;-62
2023/02/26 07:52:09;;;;;;;7.20;4.78;;;;;;;1.22;66.35;94308.81;5038298;28;20441;-63
2023/02/26 07:54:36;;;;;;;6.32;4.70;;;;;;;1.19;65.82;94306.47;5044993;28;20773;-62
2023/02/26 07:57:02;;;;;;;5.20;4.70;;;;;;;1.14;66.87;94306.81;5060770;28;20044;-73
2023/02/26 07:59:27;;;;;;;7.72;5.50;;;;;;;1.12;67.79;94316.50;5036703;28;20722;-59
2023/02/26 08:01:54;;;;;;;20.20;11.68;;;;;;;1.06;66.99;94316.97;5033468;28;20040;-61
2023/02/26 08:04:20;;;;;;;8.50;5.15;;;;;;;1.26;65.83;94312.03;5040664;28;20018;-59
2023/02/26 08:06:45;;;;;;;5.40;4.90;;;;;;;1.28;65.84;94316.13;5039388;28;20408;-59
2023/02/26 08:09:11;;;;;;;6.15;4.32;;;;;;;1.31;64.11;94307.28;5029428;28;20384;-59
2023/02/26 08:11:39;;;;;;;6.57;4.75;;;;;;;1.12;65.14;94318.28;5032853;28;20151;-59
2023/02/26 08:14:05;;;;;;;13.02;5.55;;;;;;;1.19;64.45;94310.81;5037390;28;20036;-59
2023/02/26 08:16:31;;;;;;;6.40;4.40;;;;;;;1.28;63.48;94308.34;5031943;28;20017;-59
2023/02/26 08:18:56;;;;;;;11.23;4.28;;;;;;;1.20;64.14;94305.53;5028282;28;20524;-62
2023/02/26 08:21:22;;;;;;;4.53;4.22;;;;;;;1.10;64.91;94305.41;5031031;28;20021;-63
2023/02/26 08:23:47;;;;;;;8.48;4.80;;;;;;;1.24;65.32;94298.34;5032228;28;20020;-62
2023/02/26 08:26:13;;;;;;;5.10;4.60;;;;;;;1.41;62.49;94305.63;5035225;28;20090;-63
2023/02/26 08:28:39;;;;;;;4.15;3.80;;;;;;;1.24;62.24;94293.97;5037971;28;20029;-63
2023/02/26 08:31:05;;;;;;;7.07;4.25;;;;;;;1.36;61.36;94286.19;5037330;28;20129;-63
2023/02/26 08:33:32;;;;;;;4.93;4.53;;;;;;;1.26;61.94;94288.69;5035866;28;20052;-66
2023/02/26 08:36:00;;;;;;;5.00;4.50;;;;;;;1.29;61.33;94289.25;5041104;28;20440;-63
2023/02/26 08:38:27;;;;;;;24.50;4.47;;;;;;;1.32;61.30;94285.59;5035546;28;20723;-60
2023/02/26 08:40:52;;;;;;;5.53;4.30;;;;;;;1.18;61.83;94296.22;5041460;28;20025;-62
2023/02/26 08:43:19;;;;;;;4.68;4.20;;;;;;;1.11;60.53;94294.09;5044524;28;20021;-61
2023/02/26 08:45:45;;;;;;;4.75;4.13;;;;;;;1.11;61.75;94296.69;5040639;28;20030;-60
2023/02/26 08:48:10;;;;;;;6.72;4.75;;;;;;;1.09;61.91;94292.56;5044810;28;20051;-62
2023/02/26 08:50:36;;;;;;;5.30;3.80;;;;;;;1.05;60.80;94304.13;5058123;28;20444;-62
2023/02/26 08:53:02;;;;;;;8.98;4.53;;;;;;;0.94;61.00;94308.38;5057426;28;20071;-65
2023/02/26 08:55:27;;;;;;;7.43;4.32;;;;;;;0.85;61.29;94312.47;5057649;28;20062;-71
2023/02/26 08:57:52;;;;;;;4.95;4.43;;;;;;;0.87;60.35;94316.72;5050583;28;20037;-71
2023/02/26 09:00:18;;;;;;;5.55;4.57;;;;;;;0.81;60.48;94318.00;5058334;28;20438;-71
2023/02/26 09:02:44;;;;;;;4.93;4.53;;;;;;;0.82;60.23;94330.84;5063576;28;20521;-70
2023/02/26 09:05:11;;;;;;;7.03;4.63;;;;;;;0.94;59.90;94334.28;5057716;28;20021;-69
2023/02/26 09:07:37;;;;;;;8.60;3.95;;;;;;;0.91;59.19;94329.34;5052461;28;20025;-69
2023/02/26 09:10:03;;;;;;;9.00;4.53;;;;;;;0.92;59.36;94346.53;5053931;28;20530;-71
2023/02/26 09:12:29;;;;;;;5.15;4.75;;;;;;;0.68;59.44;94346.59;5033683;28;20036;-64
2023/02/26 09:14:57;;;;;;;8.63;5.68;;;;;;;0.62;58.71;94352.25;5045358;28;20025;-61
2023/02/26 09:17:23;;;;;;;4.00;3.70;;;;;;;0.65;59.28;94359.78;5040167;28;20491;-61
2023/02/26 09:19:49;;;;;;;22.10;12.05;;;;;;;0.69;59.57;94361.22;5037413;28;20120;-62
2023/02/26 09:22:14;;;;;;;5.07;4.07;;;;;;;0.62;58.15;94354.84;5047780;28;20107;-64
2023/02/26 09:24:39;;;;;;;6.28;4.40;;;;;;;0.65;58.39;94370.16;5048240;28;20056;-63
2023/02/26 09:27:05;;;;;;;4.60;4.20;;;;;;;0.64;57.86;94363.31;5063000;28;20075;-61
2023/02/26 09:29:30;;;;;;;4.13;3.83;;;;;;;0.68;58.80;94380.28;5051195;28;20549;-60
2023/02/26 09:31:55;;;;;;;5.20;3.78;;;;;;;0.82;57.87;94366.28;5034136;28;20116;-64
2023/02/26 09:34:21;;;;;;;6.25;4.05;;;;;;;0.73;56.83;94372.19;5052768;28;20124;-65
2023/02/26 09:36:46;;;;;;;9.55;6.20;;;;;;;0.90;57.19;94376.09;5071076;28;20055;-66
2023/02/26 09:39:12;;;;;;;5.57;4.82;;;;;;;0.75;57.83;94365.91;5069152;28;20030;-64
2023/02/26 09:41:45;;;;;;;7.15;4.10;;;;;;;0.75;57.71;94365.91;5045816;28;20028;-65
2023/02/26 09:44:47;;;;;;;8.52;4.65;;;;;;;0.65;58.31;94385.69;5047905;28;20103;-65
2023/02/26 09:47:41;;;;;;;3.78;3.42;;;;;;;0.83;56.03;94381.75;5032552;28;20139;-65
2023/02/26 09:50:17;;;;;;;5.10;4.60;;;;;;;0.68;56.82;94395.81;5044665;28;20053;-65
2023/02/26 09:52:52;;;;;;;4.38;4.00;;;;;;;0.77;55.77;94389.94;5052105;28;20039;-67
2023/02/26 09:55:20;;;;;;;5.32;4.78;;;;;;;0.60;57.26;94398.97;5050108;28;20110;-66
2023/02/26 09:57:48;;;;;;;6.70;5.00;;;;;;;0.64;58.04;94400.41;5052248;28;20033;-65
2023/02/26 10:00:32;;;;;;;3.97;3.63;;;;;;;0.77;55.77;94400.31;5051191;28;20493;-65
2023/02/26 10:03:35;;;;;;;8.65;3.80;;;;;;;0.87;54.78;94394.47;5051630;28;20383;-65
2023/02/26 10:06:36;;;;;;;6.22;3.92;;;;;;;0.78;55.25;94403.75;5054249;28;20516;-65
2023/02/26 10:09:11;;;;;;;8.07;3.92;;;;;;;0.75;56.65;94402.19;5009579;28;20029;-65
2023/02/26 10:12:02;;;;;;;3.80;3.50;;;;;;;0.88;55.16;94390.94;5033223;28;20030;-65
2023/02/26 10:14:34;;;;;;;4.35;3.95;;;;;;;0.71;55.58;94403.38;5036318;28;20036;-54
2023/02/26 10:17:07;;;;;;;4.22;3.83;;;;;;;0.71;55.78;94403.38;5033045;28;20070;-53
2023/02/26 10:19:39;;;;;;;3.70;3.40;;;;;;;0.70;56.25;94392.19;5050228;28;20091;-55
2023/02/26 10:22:23;;;;;;;5.05;4.20;;;;;;;0.70;56.33;94394.78;5050821;28;20412;-54
2023/02/26 10:24:58;;;;;;;4.25;3.55;;;;;;;0.77;56.12;94387.34;5051261;28;20033;-56
2023/02/26 10:27:42;;;;;;;7.85;4.15;;;;;;;0.74;56.32;94394.56;5052957;28;20021;-53
2023/02/26 10:30:24;;;;;;;5.70;3.75;;;;;;;0.83;56.50;94388.66;5050731;28;20028;-70
2023/02/26 10:33:10;;;;;;;6.82;4.22;;;;;;;0.71;56.69;94396.44;5050097;28;20032;-59
2023/02/26 10:35:44;;;;;;;3.20;2.97;;;;;;;0.76;55.57;94409.03;5042563;28;20549;-69
2023/02/26 10:38:17;;;;;;;6.65;5.43;;;;;;;0.67;56.08;94414.91;5052569;28;20029;-70
2023/02/26 10:40:58;;;;;;;7.30;4.05;;;;;;;0.55;56.34;94414.88;5050891;28;20025;-70
2023/02/26 10:43:48;;;;;;;7.35;5.25;;;;;;;0.37;55.95;94429.97;5040069;28;20040;-69
2023/02/26 10:46:20;;;;;;;6.60;5.70;;;;;;;0.46;55.81;94412.94;5052097;28;20035;-69
2023/02/26 10:49:04;;;;;;;5.50;4.72;;;;;;;0.48;56.53;94410.25;5050138;28;20108;-68
2023/02/26 10:51:38;;;;;;;5.47;4.05;;;;;;;0.52;56.70;94415.06;5038083;28;20025;-61
2023/02/26 10:54:19;;;;;;;12.93;8.95;;;;;;;0.41;56.97;94415.03;5030620;28;20120;-63
2023/02/26 10:56:45;;;;;;;11.68;7.60;;;;;;;0.43;56.72;94426.13;5048193;28;21471;-62
2023/02/26 10:59:10;;;;;;;6.45;3.97;;;;;;;0.63;55.79;94413.47;5049129;28;20137;-62
2023/02/26 11:01:36;;;;;;;8.35;4.15;;;;;;;0.52;55.58;94407.31;5049698;28;20032;-62
2023/02/26 11:04:06;;;;;;;35.53;16.42;;;;;;;0.36;56.07;94404.19;5054109;28;20099;-62
2023/02/26 11:06:46;;;;;;;7.53;4.28;;;;;;;0.53;55.97;94402.97;5054755;28;20032;-61
2023/02/26 11:09:22;;;;;;;3.75;3.45;;;;;;;0.61;56.17;94413.56;5031106;28;20028;-69
2023/02/26 11:11:53;;;;;;;6.72;4.90;;;;;;;0.60;56.00;94408.53;5036877;28;20111;-64
2023/02/26 11:14:19;;;;;;;7.22;5.47;;;;;;;0.62;55.87;94409.25;5050365;28;20017;-63
2023/02/26 11:17:00;;;;;;;8.10;5.60;;;;;;;0.59;55.57;94412.06;5050018;28;20092;-63
2023/02/26 11:19:29;;;;;;;7.53;5.57;;;;;;;0.57;55.40;94400.03;5052763;28;20027;-62
2023/02/26 11:21:55;;;;;;;30.10;13.82;;;;;;;0.64;55.59;94392.63;5052387;28;20025;-63
2023/02/26 11:24:26;;;;;;;4.78;4.38;;;;;;;0.57;55.31;94394.88;5052597;28;20398;-62
2023/02/26 11:26:54;;;;;;;3.92;3.55;;;;;;;0.78;55.30;94401.16;5037672;28;20555;-61
2023/02/26 11:29:21;;;;;;;6.97;4.57;;;;;;;0.63;54.76;94403.13;5031748;28;20044;-66
2023/02/26 11:31:51;;;;;;;9.73;6.07;;;;;;;0.72;55.49;94399.84;5049244;28;20044;-62
2023/02/26 11:34:22;;;;;;;4.97;4.47;;;;;;;0.85;54.50;94390.22;5046362;28;20036;-63
2023/02/26 11:36:48;;;;;;;9.85;6.35;;;;;;;0.75;54.67;94391.81;5047645;28;20532;-62
2023/02/26 11:39:21;;;;;;;6.70;4.95;;;;;;;0.72;54.97;94394.66;5033345;28;20487;-62
2023/02/26 11:41:48;;;;;;;6.60;3.65;;;;;;;0.63;54.64;94397.94;5035257;28;20107;-61
2023/02/26 11:44:21;;;;;;;3.35;3.15;;;;;;;0.91;54.35;94386.34;5047090;28;20035;-62
2023/02/26 11:46:54;;;;;;;5.13;3.70;;;;;;;0.99;53.72;94383.16;5042857;28;20110;-63
2023/02/26 11:49:23;;;;;;;6.40;3.80;;;;;;;1.09;53.86;94373.75;5037111;28;20024;-63
2023/02/26 11:52:04;;;;;;;9.40;4.18;;;;;;;0.66;54.42;94377.81;5038963;28;20541;-63
2023/02/26 11:54:33;;;;;;;7.05;5.47;;;;;;;0.61;55.09;94373.91;5041478;28;20509;-64